Time;durP1;ratioP1;P1;durP2;ratioP2;P2;SDS_P1;SDS_P2;PMS_P1;PMS_P2;Temp;Humidity;BMP_temperature;BMP_pressure;BME280_temperature;BME280_humidity;BME280_pressure;Samples;Min_cycle;Max_cycle;Signal;HPM_P1;HPM_P2
2021/12/31 00:00:15;;;;;;;1.37;1.27;;;19.60;57.30;;;;;;5082878;28;20241;-48
2021/12/31 00:02:41;;;;;;;1.60;1.10;;;19.50;57.30;;;;;;5094907;28;20273;-48
2021/12/31 00:05:08;;;;;;;1.70;1.30;;;19.40;57.00;;;;;;5087706;28;20431;-50
2021/12/31 00:07:33;;;;;;;2.00;1.60;;;19.20;57.20;;;;;;5087576;28;20556;-48
2021/12/31 00:10:00;;;;;;;1.93;1.47;;;19.10;57.30;;;;;;5088734;28;21004;-48
2021/12/31 00:12:27;;;;;;;1.07;0.97;;;19.00;57.70;;;;;;5080647;28;20247;-50
2021/12/31 00:14:53;;;;;;;1.30;1.20;;;19.00;57.50;;;;;;5079672;28;20858;-47
2021/12/31 00:17:19;;;;;;;1.40;1.30;;;18.90;57.80;;;;;;5085373;28;20528;-49
2021/12/31 00:19:46;;;;;;;2.40;1.40;;;18.90;57.70;;;;;;5084156;28;20231;-47
2021/12/31 00:22:52;;;;;;;1.47;1.37;;;18.90;57.70;;;;;;5086770;28;20230;-49
2021/12/31 00:25:13;;;;;;;1.93;1.07;;;18.70;57.80;;;;;;5094812;28;20547;-51
2021/12/31 00:27:39;;;;;;;1.93;1.27;;;18.50;58.20;;;;;;5090991;28;20559;-51
2021/12/31 00:30:05;;;;;;;1.17;1.07;;;18.40;58.40;;;;;;5098121;28;20236;-52
2021/12/31 00:32:31;;;;;;;1.00;1.00;;;18.40;58.50;;;;;;5091855;28;20227;-48
2021/12/31 00:34:57;;;;;;;1.90;1.50;;;18.50;58.20;;;;;;5084089;28;20438;-48
2021/12/31 00:37:31;;;;;;;4.77;1.60;;;18.50;57.80;;;;;;5085094;28;20646;-49
2021/12/31 00:39:57;;;;;;;2.03;1.20;;;18.50;58.20;;;;;;5090201;28;20267;-47
2021/12/31 00:42:22;;;;;;;1.00;0.90;;;18.60;58.10;;;;;;5083790;28;20544;-48
2021/12/31 00:44:48;;;;;;;1.50;1.20;;;18.50;58.10;;;;;;5091608;28;20810;-51
2021/12/31 00:47:14;;;;;;;2.60;1.00;;;18.60;58.10;;;;;;5083204;28;20258;-48
2021/12/31 00:49:40;;;;;;;1.33;1.13;;;18.80;58.30;;;;;;5089997;28;20194;-48
2021/12/31 00:52:07;;;;;;;1.10;1.07;;;18.80;57.40;;;;;;5089773;28;20207;-48
2021/12/31 00:54:33;;;;;;;1.23;1.13;;;18.70;57.20;;;;;;5086328;28;20252;-50
2021/12/31 00:57:02;;;;;;;1.30;1.20;;;18.80;57.20;;;;;;5092083;28;20557;-47
2021/12/31 00:59:30;;;;;;;1.40;1.30;;;18.90;57.20;;;;;;5095037;28;20437;-49
2021/12/31 01:01:55;;;;;;;1.40;1.20;;;18.70;57.20;;;;;;5100001;28;20447;-51
2021/12/31 01:04:22;;;;;;;1.30;1.20;;;18.80;57.30;;;;;;5084971;28;20438;-51
2021/12/31 01:06:48;;;;;;;4.10;1.20;;;18.80;57.20;;;;;;5086645;28;20192;-48
2021/12/31 01:09:14;;;;;;;2.13;1.07;;;18.80;57.30;;;;;;5092342;28;20484;-48
2021/12/31 01:11:42;;;;;;;1.43;1.10;;;18.80;57.30;;;;;;5087910;28;20472;-47
2021/12/31 01:14:19;;;;;;;0.90;0.90;;;18.80;57.20;;;;;;5089836;28;20536;-50
2021/12/31 01:16:49;;;;;;;1.20;1.00;;;18.90;57.20;;;;;;5086608;28;20783;-49
2021/12/31 01:21:41;;;;;;;2.03;0.90;;;18.80;57.30;;;;;;5092407;28;20464;-47
2021/12/31 01:24:07;;;;;;;1.40;1.03;;;18.70;57.80;;;;;;5088321;28;20278;-47
2021/12/31 01:26:33;;;;;;;1.83;1.27;;;18.60;58.00;;;;;;5090369;28;20199;-49
2021/12/31 01:28:59;;;;;;;1.30;1.20;;;18.40;58.80;;;;;;5103142;28;20533;-48
2021/12/31 01:31:25;;;;;;;1.73;1.20;;;18.20;58.70;;;;;;5099076;28;20464;-47
2021/12/31 01:33:52;;;;;;;2.00;1.20;;;18.30;59.10;;;;;;5099952;28;20476;-50
2021/12/31 01:36:17;;;;;;;1.80;1.20;;;18.30;59.00;;;;;;5094310;28;20467;-49
2021/12/31 01:38:45;;;;;;;2.10;1.30;;;18.20;59.00;;;;;;5091749;28;20436;-47
2021/12/31 01:41:11;;;;;;;1.03;0.93;;;18.10;59.20;;;;;;5099790;28;20259;-48
2021/12/31 01:43:37;;;;;;;2.03;1.50;;;18.10;59.50;;;;;;5086775;28;20814;-47
2021/12/31 01:46:10;;;;;;;1.90;1.37;;;18.20;59.50;;;;;;5086020;28;20536;-48
2021/12/31 01:48:48;;;;;;;2.30;1.40;;;18.20;59.40;;;;;;5091799;28;20535;-51
2021/12/31 01:51:14;;;;;;;1.40;1.30;;;18.20;59.30;;;;;;5087232;28;20445;-51
2021/12/31 01:53:40;;;;;;;1.20;1.10;;;18.10;59.50;;;;;;5096009;28;20484;-48
2021/12/31 01:56:06;;;;;;;1.20;1.10;;;18.10;59.50;;;;;;5087267;28;20983;-47
2021/12/31 01:58:34;;;;;;;1.40;1.30;;;18.10;59.40;;;;;;5093789;28;22255;-50
2021/12/31 02:01:04;;;;;;;1.20;1.10;;;18.10;59.50;;;;;;5090097;28;20459;-47
2021/12/31 02:03:31;;;;;;;1.27;1.17;;;18.20;59.30;;;;;;5087859;28;20932;-47
2021/12/31 02:05:57;;;;;;;1.30;1.20;;;18.30;59.10;;;;;;5091592;28;20446;-47
2021/12/31 02:08:23;;;;;;;1.07;1.00;;;18.40;58.90;;;;;;5090350;28;20440;-48
2021/12/31 02:10:50;;;;;;;1.93;1.20;;;18.50;58.80;;;;;;5090765;28;20282;-51
2021/12/31 02:13:17;;;;;;;1.20;1.10;;;18.50;58.60;;;;;;5089458;28;20327;-47
2021/12/31 02:15:43;;;;;;;1.77;1.23;;;18.40;58.50;;;;;;5100542;28;20444;-48
2021/12/31 02:18:10;;;;;;;1.30;1.20;;;18.50;58.50;;;;;;5090374;28;20459;-49
2021/12/31 02:20:41;;;;;;;2.20;1.30;;;18.40;58.40;;;;;;5086623;28;20442;-46
2021/12/31 02:23:13;;;;;;;1.67;1.00;;;18.40;58.20;;;;;;5094648;28;20461;-48
2021/12/31 02:25:39;;;;;;;2.27;1.40;;;18.40;58.20;;;;;;5093989;28;20441;-47
2021/12/31 02:28:06;;;;;;;2.20;1.27;;;18.20;58.30;;;;;;5090586;28;20543;-50
2021/12/31 02:30:31;;;;;;;1.07;1.07;;;18.10;58.40;;;;;;5085566;28;20985;-48
2021/12/31 02:32:57;;;;;;;3.23;1.30;;;18.10;58.70;;;;;;5084656;28;20477;-48
2021/12/31 02:35:23;;;;;;;1.40;1.30;;;18.20;58.40;;;;;;5092789;28;20195;-50
2021/12/31 02:37:48;;;;;;;2.53;1.30;;;18.10;58.40;;;;;;5095780;28;20191;-51
2021/12/31 02:40:17;;;;;;;1.53;1.10;;;18.00;58.60;;;;;;5088693;28;20436;-49
2021/12/31 02:42:42;;;;;;;1.50;1.40;;;18.10;58.60;;;;;;5092377;28;20255;-51
2021/12/31 02:45:10;;;;;;;6.80;1.47;;;18.10;58.50;;;;;;5093227;28;20525;-47
2021/12/31 02:47:44;;;;;;;1.37;1.27;;;18.00;58.30;;;;;;5084572;28;20199;-49
2021/12/31 02:50:16;;;;;;;1.33;1.23;;;18.10;58.40;;;;;;5090233;28;20538;-50
2021/12/31 02:52:43;;;;;;;2.73;1.53;;;18.10;58.40;;;;;;5086424;28;20686;-48
2021/12/31 02:55:10;;;;;;;2.63;1.20;;;18.00;58.10;;;;;;5095011;28;20987;-48
2021/12/31 02:57:40;;;;;;;1.30;1.20;;;17.90;58.40;;;;;;5084231;28;21100;-51
2021/12/31 03:00:07;;;;;;;2.60;1.30;;;17.90;58.40;;;;;;5100606;28;20441;-48
2021/12/31 03:02:40;;;;;;;1.47;1.37;;;18.00;58.30;;;;;;5080628;28;20452;-51
2021/12/31 03:05:08;;;;;;;4.00;1.20;;;17.90;58.40;;;;;;5084226;28;20448;-50
2021/12/31 03:07:36;;;;;;;2.57;1.60;;;18.00;58.30;;;;;;5090753;28;20516;-48
2021/12/31 03:10:03;;;;;;;1.87;1.77;;;18.00;58.10;;;;;;5099841;28;20428;-50
2021/12/31 03:12:29;;;;;;;2.37;1.53;;;18.00;57.90;;;;;;5089248;28;20489;-48
2021/12/31 03:14:56;;;;;;;1.20;1.10;;;17.90;57.80;;;;;;5087303;28;20804;-51
2021/12/31 03:17:24;;;;;;;1.40;1.30;;;17.90;57.90;;;;;;5087447;28;20201;-49
2021/12/31 03:19:57;;;;;;;1.07;0.97;;;17.90;57.80;;;;;;5102670;28;20479;-51
2021/12/31 03:22:25;;;;;;;1.67;1.23;;;17.90;57.90;;;;;;5092488;28;20449;-51
2021/12/31 03:24:50;;;;;;;1.33;1.20;;;17.80;57.90;;;;;;5096242;28;20433;-52
2021/12/31 03:27:16;;;;;;;2.83;1.20;;;17.90;57.90;;;;;;5089000;28;20460;-49
2021/12/31 03:29:41;;;;;;;1.70;1.60;;;17.90;57.70;;;;;;5093341;28;20187;-51
2021/12/31 03:32:07;;;;;;;1.20;1.10;;;17.90;57.70;;;;;;5086051;28;20191;-48
2021/12/31 03:34:33;;;;;;;2.37;1.17;;;17.80;57.60;;;;;;5087616;28;22071;-47
2021/12/31 03:36:58;;;;;;;1.37;1.27;;;17.80;57.60;;;;;;5082575;28;20196;-49
2021/12/31 03:39:24;;;;;;;1.23;1.13;;;17.70;57.50;;;;;;5086880;28;20192;-52
2021/12/31 03:41:50;;;;;;;3.70;1.67;;;17.70;57.70;;;;;;5083103;28;20548;-51
2021/12/31 03:44:15;;;;;;;1.40;1.30;;;17.80;57.70;;;;;;5089331;28;20203;-48
2021/12/31 03:46:41;;;;;;;2.03;1.20;;;17.70;57.40;;;;;;5081680;28;20453;-50
2021/12/31 03:49:07;;;;;;;2.70;1.30;;;17.60;57.30;;;;;;5098034;27;20196;-52
2021/12/31 03:51:32;;;;;;;1.87;1.40;;;17.60;57.20;;;;;;5078297;28;20187;-51
2021/12/31 03:53:58;;;;;;;3.50;1.10;;;17.60;57.40;;;;;;5089052;28;20259;-50
2021/12/31 03:56:26;;;;;;;3.80;2.20;;;17.40;57.50;;;;;;5090321;28;20634;-48
2021/12/31 03:58:51;;;;;;;1.40;1.30;;;17.40;57.60;;;;;;5101138;28;20218;-47
2021/12/31 04:01:17;;;;;;;5.13;2.63;;;17.30;58.00;;;;;;5091710;28;20436;-48
2021/12/31 04:03:43;;;;;;;1.77;1.23;;;17.20;58.10;;;;;;5098585;28;20194;-48
2021/12/31 04:06:08;;;;;;;2.33;1.33;;;17.20;58.40;;;;;;5087198;28;20300;-49
2021/12/31 04:08:34;;;;;;;1.90;1.47;;;17.20;58.50;;;;;;5086263;28;20192;-48
2021/12/31 04:10:59;;;;;;;1.30;1.20;;;17.10;58.60;;;;;;5090665;28;20199;-49
2021/12/31 04:13:25;;;;;;;1.10;1.10;;;17.10;58.50;;;;;;5086806;28;20584;-47
2021/12/31 04:15:50;;;;;;;1.80;1.70;;;17.00;58.30;;;;;;5080540;28;20223;-48
2021/12/31 04:18:16;;;;;;;1.27;1.17;;;17.00;58.40;;;;;;5083826;28;20235;-52
2021/12/31 04:20:45;;;;;;;8.47;4.40;;;17.00;58.40;;;;;;5089618;28;20638;-52
2021/12/31 04:23:27;;;;;;;3.80;3.40;;;16.90;58.50;;;;;;5087257;28;20199;-52
2021/12/31 04:25:53;;;;;;;2.50;1.80;;;16.90;58.60;;;;;;5080829;28;21027;-51
2021/12/31 04:28:19;;;;;;;3.90;1.90;;;16.80;58.70;;;;;;5097154;28;20614;-51
2021/12/31 04:30:45;;;;;;;3.00;1.70;;;16.80;58.80;;;;;;5087306;28;20467;-49
2021/12/31 04:33:10;;;;;;;3.90;1.63;;;16.80;58.90;;;;;;5099065;28;20226;-51
2021/12/31 04:35:36;;;;;;;2.07;1.40;;;16.70;58.80;;;;;;5091108;28;20262;-51
2021/12/31 04:38:02;;;;;;;1.40;1.30;;;16.70;59.10;;;;;;5090839;28;20210;-50
2021/12/31 04:40:27;;;;;;;1.90;1.80;;;16.70;59.20;;;;;;5091067;28;20274;-51
2021/12/31 04:42:53;;;;;;;4.03;1.43;;;16.70;59.50;;;;;;5098182;28;20194;-51
2021/12/31 04:45:19;;;;;;;2.70;1.40;;;16.60;59.40;;;;;;5080293;28;20676;-52
2021/12/31 04:47:45;;;;;;;1.40;1.30;;;16.60;59.60;;;;;;5102535;27;20627;-51
2021/12/31 04:50:11;;;;;;;2.80;1.50;;;16.60;59.70;;;;;;5086489;28;20449;-50
2021/12/31 04:52:37;;;;;;;3.57;1.80;;;16.50;59.50;;;;;;5092022;28;21058;-52
2021/12/31 04:55:04;;;;;;;1.70;1.60;;;16.50;59.50;;;;;;5091815;28;21008;-51
2021/12/31 04:57:29;;;;;;;1.63;1.43;;;16.50;59.50;;;;;;5085974;28;20441;-48
2021/12/31 04:59:55;;;;;;;3.30;1.40;;;16.50;59.80;;;;;;5091203;28;20442;-52
2021/12/31 05:02:21;;;;;;;1.60;1.30;;;16.50;59.80;;;;;;5088823;28;20202;-51
2021/12/31 05:04:46;;;;;;;2.93;2.70;;;16.40;59.50;;;;;;5086891;28;20277;-50
2021/12/31 05:07:12;;;;;;;2.27;2.07;;;16.40;59.30;;;;;;5095155;28;20274;-50
2021/12/31 05:09:37;;;;;;;1.97;1.80;;;16.30;59.30;;;;;;5100519;28;22353;-49
2021/12/31 05:12:05;;;;;;;1.97;1.87;;;16.30;59.30;;;;;;5087437;28;20195;-50
2021/12/31 05:14:31;;;;;;;3.67;2.07;;;16.20;59.40;;;;;;5090239;28;21002;-50
2021/12/31 05:16:58;;;;;;;1.47;1.30;;;16.20;59.70;;;;;;5081201;28;20522;-51
2021/12/31 05:19:24;;;;;;;3.07;1.57;;;16.00;59.90;;;;;;5086790;28;20479;-47
2021/12/31 05:21:50;;;;;;;1.57;1.43;;;15.80;60.80;;;;;;5095723;28;20448;-52
2021/12/31 05:24:16;;;;;;;1.87;1.60;;;15.80;61.10;;;;;;5083599;28;20439;-51
2021/12/31 05:26:42;;;;;;;3.20;1.67;;;15.90;61.00;;;;;;5087683;28;20191;-51
2021/12/31 05:29:08;;;;;;;3.53;1.80;;;15.90;60.90;;;;;;5080662;28;20434;-51
2021/12/31 05:31:33;;;;;;;4.07;1.50;;;15.90;60.70;;;;;;5096834;28;21135;-52
2021/12/31 05:33:59;;;;;;;1.53;1.43;;;15.90;60.70;;;;;;5080561;28;20306;-50
2021/12/31 05:36:25;;;;;;;1.83;1.67;;;15.90;60.60;;;;;;5092032;28;20275;-52
2021/12/31 05:38:50;;;;;;;2.63;1.70;;;15.90;60.60;;;;;;5089839;28;20600;-50
2021/12/31 05:41:16;;;;;;;2.77;2.40;;;16.00;60.60;;;;;;5091610;28;20638;-52
2021/12/31 05:43:42;;;;;;;2.20;2.00;;;16.00;60.50;;;;;;5083003;28;20552;-48
2021/12/31 05:46:08;;;;;;;1.70;1.60;;;15.90;61.00;;;;;;5099883;28;20434;-49
2021/12/31 05:48:33;;;;;;;4.23;2.20;;;15.90;60.20;;;;;;5085243;28;20835;-52
2021/12/31 05:50:59;;;;;;;2.97;2.23;;;15.80;60.90;;;;;;5078539;28;20184;-52
2021/12/31 05:53:25;;;;;;;2.20;2.00;;;15.80;60.20;;;;;;5079848;28;20266;-51
2021/12/31 05:55:51;;;;;;;2.70;2.00;;;15.70;60.10;;;;;;5078094;28;20199;-51
2021/12/31 05:58:16;;;;;;;2.03;1.87;;;15.80;60.10;;;;;;5088236;28;20199;-52
2021/12/31 06:00:42;;;;;;;2.87;1.93;;;15.70;60.00;;;;;;5087341;28;20223;-51
2021/12/31 06:03:07;;;;;;;2.83;1.93;;;15.10;60.70;;;;;;5084365;28;20639;-52
2021/12/31 06:05:33;;;;;;;1.93;1.73;;;14.70;62.70;;;;;;5083210;28;20933;-53
2021/12/31 06:07:59;;;;;;;2.93;1.53;;;14.70;63.00;;;;;;5092178;28;20198;-50
2021/12/31 06:10:25;;;;;;;3.43;1.70;;;14.80;62.80;;;;;;5089420;28;20195;-52
2021/12/31 06:12:56;;;;;;;1.40;1.30;;;15.00;62.30;;;;;;5080072;28;20230;-49
2021/12/31 06:15:22;;;;;;;1.77;1.60;;;15.00;61.70;;;;;;5094630;28;20441;-52
2021/12/31 06:17:49;;;;;;;1.80;1.70;;;15.00;61.40;;;;;;5089157;28;20449;-53
2021/12/31 06:20:14;;;;;;;1.80;1.40;;;15.00;61.70;;;;;;5097325;28;20465;-53
2021/12/31 06:22:40;;;;;;;2.00;1.80;;;15.00;61.70;;;;;;5095834;28;20452;-53
2021/12/31 06:25:06;;;;;;;2.00;1.60;;;14.80;61.70;;;;;;5087108;28;20194;-53
2021/12/31 06:27:32;;;;;;;2.33;2.13;;;14.80;62.00;;;;;;5089735;28;20191;-48
2021/12/31 06:29:57;;;;;;;2.10;2.00;;;14.90;62.10;;;;;;5086686;28;20433;-51
2021/12/31 06:32:23;;;;;;;4.70;1.87;;;14.90;62.10;;;;;;5090852;28;20246;-50
2021/12/31 06:34:48;;;;;;;2.77;1.60;;;14.80;62.10;;;;;;5080760;28;20199;-50
2021/12/31 06:37:14;;;;;;;3.10;2.30;;;14.80;62.90;;;;;;5087381;28;20590;-52
2021/12/31 06:39:42;;;;;;;1.83;1.73;;;14.70;63.00;;;;;;5096520;28;20214;-47
2021/12/31 06:42:08;;;;;;;1.57;1.40;;;14.70;63.10;;;;;;5082417;28;20547;-51
2021/12/31 06:44:35;;;;;;;3.63;2.00;;;14.70;63.10;;;;;;5089521;28;20457;-51
2021/12/31 06:47:02;;;;;;;2.87;2.30;;;14.80;63.30;;;;;;5088223;28;20445;-50
2021/12/31 06:49:28;;;;;;;2.10;1.90;;;14.80;63.00;;;;;;5089806;28;20441;-52
2021/12/31 06:51:54;;;;;;;3.80;2.00;;;14.90;63.50;;;;;;5091745;28;20437;-51
2021/12/31 06:54:19;;;;;;;2.07;1.83;;;14.90;62.40;;;;;;5097628;28;20221;-48
2021/12/31 06:56:45;;;;;;;4.30;1.90;;;14.90;62.50;;;;;;5086872;28;20191;-49
2021/12/31 06:59:11;;;;;;;2.93;1.90;;;15.00;63.90;;;;;;5096285;28;20249;-49
2021/12/31 07:01:36;;;;;;;4.27;1.97;;;15.10;64.20;;;;;;5072065;28;20223;-52
2021/12/31 07:04:02;;;;;;;3.10;1.70;;;15.20;63.40;;;;;;5086786;28;20222;-48
2021/12/31 07:06:28;;;;;;;3.07;1.87;;;15.30;62.50;;;;;;5081276;28;20192;-49
2021/12/31 07:08:53;;;;;;;3.07;2.50;;;15.40;62.00;;;;;;5087117;28;20638;-48
2021/12/31 07:11:22;;;;;;;2.10;1.83;;;15.40;61.60;;;;;;5076153;28;20828;-51
2021/12/31 07:13:48;;;;;;;2.90;2.20;;;15.40;61.70;;;;;;5089260;28;20222;-48
2021/12/31 07:16:14;;;;;;;2.03;1.83;;;15.50;61.40;;;;;;5092959;28;20497;-51
2021/12/31 07:18:39;;;;;;;2.30;2.10;;;15.50;61.60;;;;;;5094042;28;20468;-47
2021/12/31 07:21:05;;;;;;;3.30;2.07;;;15.60;61.60;;;;;;5084050;28;20203;-49
2021/12/31 07:23:31;;;;;;;2.10;1.53;;;15.60;60.80;;;;;;5086185;28;20199;-47
2021/12/31 07:25:57;;;;;;;1.80;1.70;;;15.60;60.80;;;;;;5089036;28;20188;-48
2021/12/31 07:28:22;;;;;;;2.20;2.00;;;15.60;61.10;;;;;;5080997;28;20481;-47
2021/12/31 07:30:48;;;;;;;2.30;2.10;;;15.40;60.80;;;;;;5089875;28;20548;-48
2021/12/31 07:33:15;;;;;;;2.83;2.23;;;15.30;61.90;;;;;;5089183;28;20254;-51
2021/12/31 07:35:40;;;;;;;3.60;2.47;;;15.60;62.60;;;;;;5088807;28;20191;-49
2021/12/31 07:38:06;;;;;;;3.17;2.30;;;16.20;60.40;;;;;;5088409;28;20563;-49
2021/12/31 07:40:39;;;;;;;2.00;1.90;;;17.10;58.40;;;;;;5087885;28;20669;-49
2021/12/31 07:43:09;;;;;;;2.17;2.07;;;18.00;56.40;;;;;;5087592;28;20555;-47
2021/12/31 07:45:35;;;;;;;3.07;1.60;;;19.00;54.10;;;;;;5090814;28;20890;-50
2021/12/31 07:48:02;;;;;;;1.53;1.43;;;19.80;51.70;;;;;;5089973;28;20548;-50
2021/12/31 07:50:28;;;;;;;1.70;1.60;;;20.50;50.10;;;;;;5089400;28;20531;-48
2021/12/31 07:52:53;;;;;;;2.47;2.07;;;21.10;48.50;;;;;;5089352;28;22383;-49
2021/12/31 07:55:19;;;;;;;1.90;1.27;;;21.70;47.30;;;;;;5089222;28;20430;-51
2021/12/31 07:57:45;;;;;;;2.17;1.80;;;22.30;46.40;;;;;;5087439;28;20263;-51
2021/12/31 08:00:11;;;;;;;1.80;1.47;;;22.70;45.40;;;;;;5089532;28;20232;-51
2021/12/31 08:02:36;;;;;;;2.60;2.07;;;23.00;45.40;;;;;;5089601;28;20216;-48
2021/12/31 08:05:02;;;;;;;1.77;1.67;;;23.00;44.60;;;;;;5088234;28;20433;-51
2021/12/31 08:07:28;;;;;;;3.10;2.10;;;22.70;45.00;;;;;;5089399;28;20191;-48
2021/12/31 08:09:53;;;;;;;1.97;1.70;;;21.90;46.60;;;;;;5087405;28;20929;-49
2021/12/31 08:12:19;;;;;;;2.17;1.93;;;21.00;48.10;;;;;;5096269;28;20270;-50
2021/12/31 08:14:45;;;;;;;2.43;1.77;;;20.40;49.50;;;;;;5086168;28;20215;-50
2021/12/31 08:17:10;;;;;;;2.00;1.80;;;19.80;50.50;;;;;;5084200;28;20192;-48
2021/12/31 08:19:36;;;;;;;1.60;1.50;;;19.40;51.90;;;;;;5082238;28;20273;-52
2021/12/31 08:22:01;;;;;;;1.70;1.60;;;18.80;52.90;;;;;;5082358;28;20684;-49
2021/12/31 08:24:27;;;;;;;2.30;1.90;;;18.20;54.30;;;;;;5077925;28;20187;-48
2021/12/31 08:26:52;;;;;;;2.80;2.00;;;18.00;55.20;;;;;;5081868;28;20183;-50
2021/12/31 08:29:18;;;;;;;1.87;1.77;;;17.70;55.80;;;;;;5085275;28;20682;-52
2021/12/31 08:31:44;;;;;;;2.67;2.47;;;17.40;56.70;;;;;;5080299;28;20198;-51
2021/12/31 08:34:11;;;;;;;1.83;1.73;;;17.20;57.20;;;;;;5081183;28;20222;-52
2021/12/31 08:36:37;;;;;;;2.50;1.97;;;17.00;58.00;;;;;;5087721;28;20438;-48
2021/12/31 08:39:07;;;;;;;2.00;1.80;;;17.00;58.50;;;;;;5083003;28;20534;-52
2021/12/31 08:41:33;;;;;;;1.70;1.60;;;16.50;59.80;;;;;;5083335;28;20429;-53
2021/12/31 08:43:59;;;;;;;2.27;1.90;;;16.30;60.10;;;;;;5079449;28;20430;-49
2021/12/31 08:46:24;;;;;;;2.10;2.00;;;16.20;61.30;;;;;;5084976;28;20440;-52
2021/12/31 08:48:50;;;;;;;3.80;1.83;;;16.10;61.40;;;;;;5080295;28;20717;-53
2021/12/31 08:51:16;;;;;;;2.10;1.90;;;15.80;62.00;;;;;;5071395;28;20192;-52
2021/12/31 08:53:41;;;;;;;4.77;2.63;;;15.70;63.10;;;;;;5069306;28;20236;-49
2021/12/31 08:56:07;;;;;;;2.70;2.50;;;15.30;64.00;;;;;;5086863;28;20195;-47
2021/12/31 08:58:34;;;;;;;2.33;2.20;;;15.50;64.40;;;;;;5085201;28;20200;-52
2021/12/31 09:01:00;;;;;;;1.97;1.60;;;15.50;63.70;;;;;;5078186;28;20433;-49
2021/12/31 09:03:25;;;;;;;2.20;2.00;;;15.40;64.40;;;;;;5082025;28;20441;-49
2021/12/31 09:05:51;;;;;;;1.63;1.50;;;15.60;64.40;;;;;;5081683;28;20192;-51
2021/12/31 09:08:17;;;;;;;2.67;2.37;;;15.70;64.10;;;;;;5080531;28;20192;-52
2021/12/31 09:10:42;;;;;;;1.77;1.53;;;15.60;63.50;;;;;;5085654;28;20281;-52
2021/12/31 09:13:08;;;;;;;2.90;1.30;;;15.80;63.90;;;;;;5084518;28;20638;-53
2021/12/31 09:15:34;;;;;;;1.33;1.00;;;15.90;63.20;;;;;;5090137;28;20249;-53
2021/12/31 09:17:59;;;;;;;2.10;1.30;;;16.20;62.90;;;;;;5080632;28;20191;-53
2021/12/31 09:20:26;;;;;;;1.77;1.63;;;16.10;62.20;;;;;;5089092;28;20219;-49
2021/12/31 09:22:52;;;;;;;1.80;1.70;;;16.20;62.00;;;;;;5087602;28;20202;-49
2021/12/31 09:25:18;;;;;;;2.50;2.17;;;16.20;61.90;;;;;;5081791;28;20512;-50
2021/12/31 09:27:44;;;;;;;2.30;2.07;;;16.20;61.80;;;;;;5088490;28;20239;-52
2021/12/31 09:30:11;;;;;;;2.50;1.80;;;16.40;61.00;;;;;;5083776;28;20457;-52
2021/12/31 09:32:37;;;;;;;2.87;2.10;;;16.40;61.60;;;;;;5088642;28;20314;-53
2021/12/31 09:35:03;;;;;;;2.13;1.80;;;16.40;61.00;;;;;;5082953;28;21012;-50
2021/12/31 09:37:28;;;;;;;2.43;2.23;;;16.50;61.40;;;;;;5084868;28;20199;-52
2021/12/31 09:39:54;;;;;;;3.10;2.33;;;16.60;60.30;;;;;;5092647;28;20923;-51
2021/12/31 09:42:19;;;;;;;5.23;2.00;;;16.60;60.30;;;;;;5083418;28;20463;-49
2021/12/31 09:44:49;;;;;;;5.53;2.80;;;16.80;60.40;;;;;;5089614;28;20191;-49
2021/12/31 09:47:16;;;;;;;2.33;2.20;;;17.10;59.30;;;;;;5087871;28;20199;-49
2021/12/31 09:49:42;;;;;;;2.00;1.80;;;17.30;58.50;;;;;;5092647;28;20460;-50
2021/12/31 09:52:10;;;;;;;2.60;2.40;;;17.10;58.70;;;;;;5090038;28;20494;-48
2021/12/31 09:54:43;;;;;;;2.50;2.13;;;17.10;58.80;;;;;;5079345;28;20813;-48
2021/12/31 09:57:17;;;;;;;2.27;1.80;;;17.60;58.20;;;;;;5087621;28;20901;-48
2021/12/31 09:59:43;;;;;;;1.97;1.87;;;18.00;57.60;;;;;;5081706;28;20524;-49
2021/12/31 10:02:10;;;;;;;3.50;2.00;;;18.50;56.30;;;;;;5079515;28;20534;-48
2021/12/31 10:04:55;;;;;;;3.77;2.00;;;19.00;55.60;;;;;;5088835;28;20455;-49
2021/12/31 10:07:23;;;;;;;1.77;1.67;;;19.50;54.70;;;;;;5086127;28;20437;-51
2021/12/31 10:10:11;;;;;;;1.77;1.67;;;19.70;54.00;;;;;;5079888;28;20525;-49
2021/12/31 10:12:56;;;;;;;1.53;1.43;;;20.00;53.00;;;;;;5080359;28;20542;-52
2021/12/31 10:15:26;;;;;;;1.83;1.53;;;20.20;52.40;;;;;;5077271;28;21267;-49
2021/12/31 10:17:53;;;;;;;1.47;1.20;;;20.40;52.10;;;;;;5090291;28;20461;-50
2021/12/31 10:20:20;;;;;;;1.50;1.40;;;20.60;51.70;;;;;;5086276;28;20960;-48
2021/12/31 10:22:46;;;;;;;1.70;1.30;;;20.90;51.30;;;;;;5084866;28;20524;-49
2021/12/31 10:25:16;;;;;;;1.60;1.50;;;21.10;50.30;;;;;;5082676;28;20917;-50
2021/12/31 10:27:42;;;;;;;2.27;1.60;;;21.30;50.10;;;;;;5088725;28;20445;-49
2021/12/31 10:30:08;;;;;;;1.50;1.40;;;21.40;49.70;;;;;;5087561;28;20436;-51
2021/12/31 10:32:40;;;;;;;2.80;1.60;;;21.50;50.10;;;;;;5084432;28;20988;-52
2021/12/31 10:35:11;;;;;;;1.63;1.53;;;21.50;49.50;;;;;;5081188;28;20437;-50
2021/12/31 10:37:45;;;;;;;2.43;1.50;;;21.00;50.70;;;;;;5080965;28;20468;-49
2021/12/31 10:40:12;;;;;;;1.80;1.70;;;20.90;50.50;;;;;;5082225;28;20445;-49
2021/12/31 10:42:38;;;;;;;1.90;1.80;;;21.00;50.90;;;;;;5083240;28;20457;-49
2021/12/31 10:45:05;;;;;;;1.60;1.50;;;20.90;50.00;;;;;;5085414;28;20874;-50
2021/12/31 10:47:33;;;;;;;1.73;1.60;;;21.00;50.70;;;;;;5090905;28;20195;-49
2021/12/31 10:50:18;;;;;;;1.80;1.70;;;21.10;51.00;;;;;;5083871;28;20459;-48
2021/12/31 10:53:03;;;;;;;2.10;1.63;;;21.30;50.30;;;;;;5081410;28;20560;-51
2021/12/31 10:55:33;;;;;;;1.77;1.53;;;21.50;50.20;;;;;;5081538;28;20437;-53
2021/12/31 10:58:02;;;;;;;1.60;1.50;;;21.70;50.20;;;;;;5081975;28;20437;-50
2021/12/31 11:00:31;;;;;;;1.60;1.50;;;21.90;49.40;;;;;;5082259;28;20430;-50
2021/12/31 11:02:57;;;;;;;2.13;2.03;;;22.00;48.90;;;;;;5080493;28;20491;-49
2021/12/31 11:05:23;;;;;;;2.10;1.80;;;21.90;48.70;;;;;;5077466;28;20425;-51
2021/12/31 11:07:51;;;;;;;1.67;1.57;;;22.20;49.20;;;;;;5083773;28;20433;-48
2021/12/31 11:10:18;;;;;;;1.30;1.20;;;22.50;48.10;;;;;;5090582;28;20428;-49
2021/12/31 11:12:47;;;;;;;1.87;1.77;;;22.70;47.50;;;;;;5087498;28;20472;-50
2021/12/31 11:15:14;;;;;;;1.90;1.80;;;23.10;46.90;;;;;;5080415;28;20436;-49
2021/12/31 11:17:41;;;;;;;2.20;2.00;;;23.10;46.80;;;;;;5083995;28;20841;-49
2021/12/31 11:20:07;;;;;;;2.00;1.80;;;23.20;46.40;;;;;;5084742;28;20527;-49
2021/12/31 11:22:33;;;;;;;1.90;1.77;;;23.20;46.40;;;;;;5082361;28;20445;-48
2021/12/31 11:25:17;;;;;;;2.33;1.90;;;23.20;46.40;;;;;;5081865;28;20437;-49
2021/12/31 11:27:47;;;;;;;1.83;1.73;;;23.00;46.80;;;;;;5085586;28;20437;-50
2021/12/31 11:30:32;;;;;;;2.27;2.17;;;22.70;47.40;;;;;;5089829;28;20478;-49
2021/12/31 11:32:57;;;;;;;2.70;1.70;;;22.40;47.70;;;;;;5087370;28;20512;-49
2021/12/31 11:35:39;;;;;;;1.70;1.60;;;22.20;48.70;;;;;;5084617;28;21093;-50
2021/12/31 11:38:28;;;;;;;1.80;1.53;;;22.30;49.50;;;;;;5085459;28;20203;-49
2021/12/31 11:41:11;;;;;;;1.80;1.70;;;22.20;49.00;;;;;;5078580;28;20464;-53
2021/12/31 11:43:39;;;;;;;2.10;1.90;;;22.30;49.50;;;;;;5082153;28;20442;-50
2021/12/31 11:46:19;;;;;;;2.10;1.90;;;22.40;49.00;;;;;;5079471;28;20455;-50
2021/12/31 11:48:45;;;;;;;1.60;1.50;;;22.30;49.40;;;;;;5089322;28;20920;-49
2021/12/31 11:51:12;;;;;;;2.00;1.70;;;22.30;49.60;;;;;;5077749;28;20448;-50
2021/12/31 11:53:56;;;;;;;2.40;1.83;;;22.40;49.30;;;;;;5080361;28;20609;-50
2021/12/31 11:56:37;;;;;;;2.03;1.83;;;22.60;49.40;;;;;;5078698;28;20444;-49
2021/12/31 11:59:08;;;;;;;2.30;2.10;;;22.70;48.90;;;;;;5079401;28;20790;-48
2021/12/31 12:01:36;;;;;;;1.80;1.47;;;22.80;48.70;;;;;;5080012;28;20442;-49
2021/12/31 12:04:21;;;;;;;1.47;1.37;;;22.70;48.40;;;;;;5086518;28;20438;-52
2021/12/31 12:07:23;;;;;;;1.77;1.67;;;22.70;48.80;;;;;;5087773;28;20441;-50
2021/12/31 12:09:49;;;;;;;1.70;1.60;;;22.70;48.90;;;;;;5086895;28;20440;-49
2021/12/31 12:12:26;;;;;;;1.63;1.53;;;22.80;48.40;;;;;;5084250;28;20432;-51
2021/12/31 12:14:53;;;;;;;2.10;1.63;;;22.90;48.20;;;;;;5077365;28;20195;-49
2021/12/31 12:17:28;;;;;;;1.80;1.50;;;22.90;48.30;;;;;;5080445;28;20443;-52
2021/12/31 12:19:56;;;;;;;2.60;1.50;;;23.00;48.50;;;;;;5082929;28;20563;-49
2021/12/31 12:22:26;;;;;;;1.80;1.60;;;23.10;47.90;;;;;;5075848;28;20486;-50
2021/12/31 12:24:52;;;;;;;2.40;1.60;;;23.30;47.90;;;;;;5088600;28;20475;-50
2021/12/31 12:27:20;;;;;;;1.70;1.60;;;23.50;47.40;;;;;;5082380;28;20433;-49
2021/12/31 12:29:46;;;;;;;1.50;1.40;;;23.60;47.10;;;;;;5088267;28;20426;-49
2021/12/31 12:32:12;;;;;;;1.80;1.70;;;23.50;47.80;;;;;;5084728;28;21051;-50
2021/12/31 12:34:38;;;;;;;2.23;2.10;;;23.50;47.30;;;;;;5078545;28;20437;-50
2021/12/31 12:37:04;;;;;;;1.93;1.83;;;23.30;47.00;;;;;;5085691;28;20797;-49
2021/12/31 12:39:30;;;;;;;2.13;1.60;;;23.20;47.20;;;;;;5087904;28;20674;-49
2021/12/31 12:41:56;;;;;;;1.70;1.60;;;22.90;47.60;;;;;;5087107;28;20478;-49
2021/12/31 12:44:22;;;;;;;1.60;1.50;;;22.80;48.10;;;;;;5085882;28;20429;-51
2021/12/31 12:46:56;;;;;;;2.00;1.90;;;22.70;48.30;;;;;;5100387;28;20184;-49
2021/12/31 12:49:24;;;;;;;1.60;1.50;;;22.70;48.40;;;;;;5084377;28;20315;-50
2021/12/31 12:51:49;;;;;;;4.30;1.67;;;22.70;48.50;;;;;;5087089;28;20468;-49